createdAt,value
2018-07-19T00:01:01.239Z,22.62
2018-07-19T00:03:32.753Z,22.58
2018-07-19T00:06:03.359Z,22.48
2018-07-19T00:08:34.826Z,22.54
2018-07-19T00:11:06.131Z,22.50
2018-07-19T00:13:37.620Z,22.47
2018-07-19T00:16:09.150Z,22.42
2018-07-19T00:18:40.380Z,22.42
2018-07-19T00:21:11.539Z,22.41
2018-07-19T00:23:42.843Z,22.40
2018-07-19T00:26:14.225Z,22.48
2018-07-19T00:28:45.806Z,22.48
2018-07-19T00:31:17.301Z,22.42
2018-07-19T00:33:48.118Z,22.42
2018-07-19T00:36:19.776Z,22.46
2018-07-19T00:38:51.496Z,22.47
2018-07-19T00:41:22.666Z,22.39
2018-07-19T00:43:53.112Z,22.37
2018-07-19T00:46:24.611Z,22.37
2018-07-19T00:48:55.750Z,22.28
2018-07-19T00:51:26.914Z,22.28
2018-07-19T00:53:58.114Z,22.32
2018-07-19T00:56:30.026Z,22.27
2018-07-19T00:59:01.268Z,22.27
2018-07-19T01:01:32.884Z,22.24
2018-07-19T01:04:05.348Z,22.27
2018-07-19T01:06:36.642Z,22.29
2018-07-19T01:09:10.991Z,22.24
2018-07-19T01:11:41.714Z,22.31
2018-07-19T01:14:13.513Z,22.28
2018-07-19T01:16:44.470Z,22.29
2018-07-19T01:19:16.443Z,22.30
2018-07-19T01:21:47.190Z,22.33
2018-07-19T01:24:18.667Z,22.27
2018-07-19T01:26:49.957Z,22.25
2018-07-19T01:29:21.733Z,22.24
2018-07-19T01:31:52.939Z,22.24
2018-07-19T01:34:24.445Z,22.25
2018-07-19T01:36:55.860Z,22.18
2018-07-19T01:39:27.116Z,22.19
2018-07-19T01:43:01.544Z,22.18
2018-07-19T01:45:32.970Z,22.19
2018-07-19T01:48:04.636Z,22.28
2018-07-19T01:50:35.874Z,22.31
2018-07-19T01:53:08.187Z,22.31
2018-07-19T01:55:42.658Z,22.38
2018-07-19T01:58:13.837Z,22.47
2018-07-19T02:00:45.502Z,22.50
2018-07-19T02:03:16.292Z,22.52
2018-07-19T02:05:48.188Z,22.54
2018-07-19T02:08:19.163Z,22.49
2018-07-19T02:10:50.588Z,22.53
2018-07-19T02:13:21.969Z,22.44
2018-07-19T02:15:53.493Z,22.46
2018-07-19T02:18:25.045Z,22.51
2018-07-19T02:20:56.601Z,22.36
2018-07-19T02:23:27.767Z,22.23
2018-07-19T02:25:59.347Z,22.19
2018-07-19T02:28:31.460Z,22.14
2018-07-19T02:31:03.162Z,21.95
2018-07-19T02:33:34.647Z,21.88
2018-07-19T02:36:06.423Z,21.77
2018-07-19T02:38:37.847Z,21.73
2018-07-19T02:41:10.889Z,21.69
2018-07-19T02:43:42.265Z,21.76
2018-07-19T02:46:13.900Z,21.74
2018-07-19T02:48:44.926Z,21.61
2018-07-19T02:51:16.403Z,21.67
2018-07-19T02:53:54.648Z,21.52
2018-07-19T02:56:26.126Z,21.46
2018-07-19T02:58:57.500Z,21.59
2018-07-19T03:01:29.198Z,21.77
2018-07-19T03:04:00.487Z,22.10
2018-07-19T03:06:31.849Z,22.27
2018-07-19T03:09:03.537Z,22.40
2018-07-19T03:11:35.982Z,22.49
2018-07-19T03:14:07.285Z,22.49
2018-07-19T03:16:38.775Z,22.52
2018-07-19T03:19:10.659Z,22.51
2018-07-19T03:21:41.579Z,22.49
2018-07-19T03:24:13.085Z,22.39
2018-07-19T03:26:44.124Z,22.37
2018-07-19T03:29:15.638Z,22.33
2018-07-19T03:31:47.439Z,22.32
2018-07-19T03:34:18.788Z,22.28
2018-07-19T03:36:50.328Z,22.27
2018-07-19T03:39:21.741Z,22.31
2018-07-19T03:41:53.165Z,22.39
2018-07-19T03:44:24.784Z,22.48
2018-07-19T03:46:56.252Z,22.57
2018-07-19T03:49:27.701Z,22.62
2018-07-19T03:51:59.458Z,22.62
2018-07-19T03:54:30.774Z,22.66
2018-07-19T03:57:01.995Z,22.69
2018-07-19T03:59:33.494Z,22.71
2018-07-19T04:02:04.661Z,22.80
2018-07-19T04:04:36.164Z,22.88
2018-07-19T04:07:07.480Z,22.93
2018-07-19T04:09:39.181Z,22.97
2018-07-19T04:12:10.596Z,22.97
2018-07-19T04:14:42.085Z,23.08
2018-07-19T04:17:12.881Z,23.18
2018-07-19T04:19:43.556Z,23.28
2018-07-19T04:22:13.742Z,23.36
2018-07-19T04:24:44.388Z,23.42
2018-07-19T04:27:14.514Z,23.49
2018-07-19T04:29:44.698Z,23.55
2018-07-19T04:32:14.964Z,23.65
2018-07-19T04:34:45.347Z,23.67
2018-07-19T04:37:15.235Z,23.77
2018-07-19T04:39:45.543Z,23.82
2018-07-19T04:42:15.785Z,23.88
2018-07-19T04:44:46.389Z,23.89
2018-07-19T04:47:16.549Z,23.81
2018-07-19T04:49:46.899Z,23.71
2018-07-19T04:52:17.166Z,23.92
2018-07-19T04:54:47.439Z,23.92
2018-07-19T04:57:17.536Z,23.86
2018-07-19T04:59:47.769Z,24.05
2018-07-19T05:02:18.107Z,23.99
2018-07-19T05:04:48.266Z,23.85
2018-07-19T05:07:18.922Z,23.92
2018-07-19T05:09:49.084Z,23.93
2018-07-19T05:12:19.541Z,24.03
2018-07-19T05:14:49.968Z,24.19
2018-07-19T05:17:20.203Z,24.19
2018-07-19T05:19:50.452Z,24.34
2018-07-19T05:22:20.623Z,24.38
2018-07-19T05:24:50.855Z,24.17
2018-07-19T05:27:21.868Z,24.01
2018-07-19T05:29:52.250Z,23.70
2018-07-19T05:32:22.457Z,23.66
2018-07-19T05:34:52.714Z,23.50
2018-07-19T05:37:22.877Z,23.41
2018-07-19T05:39:52.957Z,23.50
2018-07-19T05:42:23.220Z,23.40
2018-07-19T05:44:53.344Z,23.33
2018-07-19T05:47:23.496Z,23.35
2018-07-19T05:49:53.992Z,23.34
2018-07-19T05:52:24.267Z,23.33
2018-07-19T05:54:54.830Z,23.42
2018-07-19T05:57:24.894Z,23.68
2018-07-19T05:59:55.045Z,24.06
2018-07-19T06:02:25.343Z,24.30
2018-07-19T06:04:55.773Z,24.44
2018-07-19T06:07:25.950Z,24.44
2018-07-19T06:09:56.239Z,24.18
2018-07-19T06:12:26.563Z,24.13
2018-07-19T06:14:56.927Z,23.96
2018-07-19T06:17:27.185Z,24.12
2018-07-19T06:26:45.651Z,24.18
2018-07-19T06:29:15.787Z,24.23
2018-07-19T06:31:46.098Z,24.30
2018-07-19T06:34:16.415Z,24.42
2018-07-19T06:36:46.469Z,24.35
2018-07-19T06:39:16.677Z,24.25
2018-07-19T06:41:46.909Z,24.51
2018-07-19T06:44:17.208Z,24.46
2018-07-19T06:46:47.481Z,24.39
2018-07-19T06:49:18.089Z,24.47
2018-07-19T06:51:48.827Z,24.49
2018-07-19T06:54:19.181Z,24.60
2018-07-19T06:56:49.770Z,24.80
2018-07-19T06:59:19.838Z,25.02
2018-07-19T07:01:50.003Z,24.91
2018-07-19T07:04:20.443Z,24.72
2018-07-19T07:06:50.817Z,24.83
2018-07-19T07:09:20.813Z,24.89
2018-07-19T07:11:51.063Z,24.97
2018-07-19T07:14:21.292Z,25.03
2018-07-19T07:16:51.313Z,25.13
2018-07-19T07:19:21.490Z,25.62
2018-07-19T07:21:51.832Z,25.46
2018-07-19T07:24:21.999Z,25.55
2018-07-19T07:26:52.187Z,25.62
2018-07-19T07:29:22.521Z,25.28
2018-07-19T07:31:52.842Z,25.50
2018-07-19T07:34:23.025Z,25.58
2018-07-19T07:36:53.246Z,25.50
2018-07-19T07:39:23.591Z,25.38
2018-07-19T07:41:53.929Z,25.72
2018-07-19T07:44:24.138Z,25.60
2018-07-19T07:46:54.394Z,26.02
2018-07-19T07:49:24.532Z,26.39
2018-07-19T07:51:54.908Z,26.72
2018-07-19T07:54:25.141Z,26.48
2018-07-19T07:56:55.529Z,25.43
2018-07-19T07:59:25.853Z,24.92
2018-07-19T08:01:56.206Z,24.66
2018-07-19T08:04:26.623Z,24.71
2018-07-19T08:06:56.875Z,24.87
2018-07-19T08:09:27.186Z,25.19
2018-07-19T08:11:57.501Z,25.36
2018-07-19T08:14:27.816Z,25.54
2018-07-19T08:16:57.985Z,25.87
2018-07-19T08:19:28.307Z,25.72
2018-07-19T08:21:58.456Z,25.92
2018-07-19T08:24:29.739Z,25.95
2018-07-19T08:27:00.014Z,25.79
2018-07-19T08:29:30.431Z,25.67
2018-07-19T08:32:01.522Z,25.83
2018-07-19T08:34:31.831Z,25.57
2018-07-19T08:37:02.083Z,25.61
2018-07-19T08:39:32.247Z,26.07
2018-07-19T08:42:02.562Z,25.82
2018-07-19T08:44:32.947Z,26.24
2018-07-19T08:47:03.277Z,26.32
2018-07-19T08:49:33.435Z,26.67
2018-07-19T08:52:03.642Z,26.93
2018-07-19T08:54:33.930Z,26.95
2018-07-19T08:57:04.225Z,26.87
2018-07-19T08:59:34.649Z,27.22
2018-07-19T09:02:04.873Z,27.15
2018-07-19T09:04:35.167Z,27.21
2018-07-19T09:07:05.460Z,27.14
2018-07-19T09:09:35.660Z,27.05
2018-07-19T09:12:05.830Z,27.49
2018-07-19T09:14:36.124Z,27.28
2018-07-19T09:17:06.299Z,27.65
2018-07-19T09:19:36.535Z,27.40
2018-07-19T09:24:45.448Z,27.84
2018-07-19T09:27:15.737Z,27.97
2018-07-19T09:29:46.115Z,27.70
2018-07-19T09:32:16.218Z,27.51
2018-07-19T09:34:46.335Z,27.85
2018-07-19T09:37:16.861Z,27.53
2018-07-19T09:39:47.068Z,27.90
2018-07-19T09:42:17.256Z,28.33
2018-07-19T09:44:47.356Z,27.98
2018-07-19T09:47:17.649Z,27.87
2018-07-19T09:49:47.947Z,28.19
2018-07-19T09:52:18.173Z,28.37
2018-07-19T09:54:55.071Z,28.41
2018-07-19T09:57:25.194Z,28.20
2018-07-19T09:59:55.425Z,28.40
2018-07-19T10:02:25.793Z,28.47
2018-07-19T10:04:56.428Z,28.47
2018-07-19T10:07:26.495Z,28.61
2018-07-19T10:09:56.889Z,28.75
2018-07-19T10:12:27.147Z,28.87
2018-07-19T10:14:57.302Z,29.05
2018-07-19T10:17:27.466Z,28.79
2018-07-19T10:19:57.723Z,28.62
2018-07-19T10:22:27.994Z,28.81
2018-07-19T10:24:58.134Z,29.10
2018-07-19T10:27:28.358Z,29.10
2018-07-19T10:29:58.750Z,29.28
2018-07-19T10:32:29.201Z,29.52
2018-07-19T10:34:59.415Z,29.20
2018-07-19T10:37:29.579Z,28.67
2018-07-19T10:39:59.913Z,29.03
2018-07-19T10:42:30.312Z,29.47
2018-07-19T10:45:00.663Z,29.61
2018-07-19T10:47:30.868Z,29.43
2018-07-19T10:50:01.090Z,29.46
2018-07-19T10:52:31.352Z,29.55
2018-07-19T10:55:01.281Z,29.85
2018-07-19T10:57:31.135Z,30.00
2018-07-19T11:00:01.318Z,30.00
2018-07-19T11:02:31.228Z,29.55
2018-07-19T11:05:01.173Z,29.94
2018-07-19T11:07:31.409Z,29.79
2018-07-19T11:10:01.734Z,29.26
2018-07-19T11:12:32.222Z,29.54
2018-07-19T11:15:02.569Z,29.73
2018-07-19T11:17:32.922Z,29.95
2018-07-19T11:20:03.392Z,29.62
2018-07-19T11:22:33.726Z,30.05
2018-07-19T11:25:04.002Z,30.11
2018-07-19T11:27:34.231Z,30.19
2018-07-19T11:30:04.526Z,30.32
2018-07-19T11:32:34.666Z,29.94
2018-07-19T11:35:04.980Z,30.06
2018-07-19T11:37:35.025Z,30.35
2018-07-19T11:40:05.267Z,30.25
2018-07-19T11:42:35.516Z,30.09
2018-07-19T11:45:06.056Z,30.40
2018-07-19T11:47:36.221Z,30.37
2018-07-19T11:50:06.786Z,30.24
2018-07-19T11:52:37.204Z,30.23
2018-07-19T11:55:07.251Z,30.48
2018-07-19T11:57:37.403Z,30.37
2018-07-19T12:00:08.113Z,30.43
2018-07-19T12:02:38.460Z,30.39
2018-07-19T12:05:08.887Z,30.83
2018-07-19T12:07:39.043Z,30.56
2018-07-19T12:10:09.268Z,30.70
2018-07-19T12:12:39.563Z,30.69
2018-07-19T12:15:09.966Z,30.90
2018-07-19T12:17:40.012Z,30.93
2018-07-19T12:20:10.274Z,30.66
2018-07-19T12:22:40.343Z,30.79
2018-07-19T12:25:10.549Z,30.99
2018-07-19T12:27:40.821Z,30.78
2018-07-19T12:30:11.164Z,30.45
2018-07-19T12:32:41.446Z,30.46
2018-07-19T12:35:11.775Z,31.08
2018-07-19T12:37:42.013Z,30.79
2018-07-19T12:40:12.254Z,30.74
2018-07-19T12:42:42.495Z,30.13
2018-07-19T12:45:12.762Z,29.97
2018-07-19T12:47:43.094Z,29.95
2018-07-19T12:50:13.137Z,30.23
2018-07-19T12:52:42.975Z,30.40
2018-07-19T12:55:13.089Z,30.39
2018-07-19T12:57:43.223Z,30.04
2018-07-19T13:00:13.245Z,30.43
2018-07-19T13:02:43.403Z,30.75
2018-07-19T13:05:13.687Z,30.67
2018-07-19T13:07:43.927Z,30.97
2018-07-19T13:10:14.164Z,30.95
2018-07-19T13:12:44.315Z,30.59
2018-07-19T13:15:14.546Z,30.89
2018-07-19T13:17:44.636Z,31.10
2018-07-19T13:20:14.705Z,30.51
2018-07-19T13:22:44.906Z,30.29
2018-07-19T13:25:15.220Z,29.83
2018-07-19T13:27:45.407Z,29.78
2018-07-19T13:30:15.593Z,29.91
2018-07-19T13:32:45.760Z,30.12
2018-07-19T13:35:16.205Z,30.09
2018-07-19T13:37:46.497Z,29.83
2018-07-19T13:40:16.616Z,29.56
2018-07-19T13:42:46.694Z,29.81
2018-07-19T13:45:17.208Z,29.89
2018-07-19T13:47:47.545Z,29.19
2018-07-19T13:50:17.921Z,28.76
2018-07-19T13:52:59.020Z,28.35
2018-07-19T13:55:29.294Z,28.33
2018-07-19T13:57:59.971Z,28.25
2018-07-19T14:00:30.434Z,28.22
2018-07-19T14:03:00.724Z,28.43
2018-07-19T14:05:30.913Z,28.67
2018-07-19T14:08:01.109Z,28.76
2018-07-19T14:10:31.404Z,28.60
2018-07-19T14:13:01.514Z,28.99
2018-07-19T14:15:31.684Z,29.20
2018-07-19T14:18:01.909Z,29.60
2018-07-19T14:20:32.261Z,29.71
2018-07-19T14:23:02.250Z,29.22
2018-07-19T14:25:32.742Z,29.12
2018-07-19T14:28:03.155Z,29.04
2018-07-19T14:30:33.458Z,29.29
2018-07-19T14:33:03.186Z,28.99
2018-07-19T14:35:33.366Z,29.08
2018-07-19T14:38:03.547Z,28.98
2018-07-19T14:40:33.546Z,29.14
2018-07-19T14:43:03.691Z,29.28
2018-07-19T14:45:33.701Z,29.60
2018-07-19T14:48:03.872Z,29.85
2018-07-19T14:50:34.144Z,29.69
2018-07-19T14:53:04.398Z,29.63
2018-07-19T14:55:34.578Z,29.94
2018-07-19T14:58:04.953Z,29.88
2018-07-19T15:00:35.190Z,29.57
2018-07-19T15:03:05.472Z,29.41
2018-07-19T15:05:35.673Z,29.47
2018-07-19T15:08:05.837Z,29.46
2018-07-19T15:10:35.899Z,29.55
2018-07-19T15:13:06.117Z,29.19
2018-07-19T15:15:36.477Z,29.31
2018-07-19T15:18:06.440Z,29.09
2018-07-19T15:20:36.744Z,28.79
2018-07-19T15:23:07.128Z,28.65
2018-07-19T15:25:37.238Z,28.75
2018-07-19T15:28:07.395Z,28.59
2018-07-19T15:30:37.822Z,28.87
2018-07-19T15:33:07.870Z,28.58
2018-07-19T15:35:38.159Z,28.42
2018-07-19T15:38:08.490Z,28.44
2018-07-19T15:40:38.840Z,28.36
2018-07-19T15:43:09.018Z,28.40
2018-07-19T15:45:39.318Z,28.17
2018-07-19T15:49:38.663Z,28.13
2018-07-19T15:52:08.990Z,27.60
2018-07-19T15:54:39.222Z,27.84
2018-07-19T15:57:09.509Z,27.56
2018-07-19T15:59:39.835Z,27.63
2018-07-19T16:02:09.927Z,27.50
2018-07-19T16:04:40.000Z,27.59
2018-07-19T16:07:10.331Z,27.54
2018-07-19T16:09:40.352Z,27.74
2018-07-19T16:12:10.690Z,27.67
2018-07-19T16:14:40.848Z,27.82
2018-07-19T16:17:11.341Z,27.56
2018-07-19T16:19:41.601Z,27.32
2018-07-19T16:22:11.795Z,27.10
2018-07-19T16:24:42.106Z,27.14
2018-07-19T16:27:12.412Z,27.07
2018-07-19T16:29:42.638Z,27.03
2018-07-19T16:32:12.910Z,26.84
2018-07-19T16:34:43.160Z,26.53
2018-07-19T16:37:13.024Z,26.21
2018-07-19T16:39:43.573Z,26.02
2018-07-19T16:42:13.861Z,25.81
2018-07-19T16:44:43.967Z,25.58
2018-07-19T16:47:14.273Z,25.46
2018-07-19T16:49:44.511Z,25.25
2018-07-19T16:52:14.717Z,25.27
2018-07-19T16:54:44.892Z,25.12
2018-07-19T16:57:15.191Z,25.05
2018-07-19T16:59:45.500Z,24.91
2018-07-19T17:02:15.575Z,25.00
2018-07-19T17:04:45.612Z,24.84
2018-07-19T17:07:16.156Z,24.79
2018-07-19T17:09:46.316Z,24.77
2018-07-19T17:12:16.559Z,24.72
2018-07-19T17:14:46.871Z,24.65
2018-07-19T17:17:16.989Z,24.63
2018-07-19T17:19:47.149Z,24.55
2018-07-19T17:22:17.351Z,24.52
2018-07-19T17:24:47.573Z,24.42
2018-07-19T17:27:17.428Z,24.35
2018-07-19T17:29:47.279Z,24.26
2018-07-19T17:32:17.718Z,24.23
2018-07-19T17:34:47.905Z,24.29
2018-07-19T17:37:18.737Z,24.34
2018-07-19T17:39:48.980Z,24.23
2018-07-19T17:42:19.366Z,24.18
2018-07-19T17:44:49.672Z,24.24
2018-07-19T17:47:20.004Z,24.22
2018-07-19T17:49:50.076Z,24.16
2018-07-19T17:52:20.247Z,24.23
2018-07-19T17:54:50.506Z,24.15
2018-07-19T17:57:20.686Z,24.14
2018-07-19T17:59:50.885Z,24.20
2018-07-19T18:02:21.252Z,24.08
2018-07-19T18:04:51.636Z,24.03
2018-07-19T18:07:21.898Z,24.06
2018-07-19T18:09:52.055Z,24.02
2018-07-19T18:12:22.464Z,23.94
2018-07-19T18:14:52.616Z,23.89
2018-07-19T18:17:22.859Z,23.84
2018-07-19T18:19:53.018Z,23.80
2018-07-19T18:22:23.194Z,23.77
2018-07-19T18:24:53.961Z,23.62
2018-07-19T18:27:24.308Z,23.62
2018-07-19T18:29:54.430Z,23.56
2018-07-19T18:32:24.656Z,23.54
2018-07-19T18:34:54.719Z,23.57
2018-07-19T18:37:24.966Z,23.55
2018-07-19T18:39:55.139Z,23.53
2018-07-19T18:42:25.628Z,23.51
2018-07-19T18:44:55.690Z,23.48
2018-07-19T18:47:25.931Z,23.42
2018-07-19T18:49:56.135Z,23.39
2018-07-19T18:52:26.385Z,23.32
2018-07-19T18:54:56.786Z,23.29
2018-07-19T18:57:26.883Z,23.29
2018-07-19T18:59:57.171Z,23.24
2018-07-19T19:02:27.215Z,23.24
2018-07-19T19:04:57.510Z,23.17
2018-07-19T19:07:27.682Z,23.19
2018-07-19T19:09:57.888Z,23.18
2018-07-19T19:12:28.930Z,23.12
2018-07-19T19:14:59.213Z,23.07
2018-07-19T19:17:29.597Z,23.04
2018-07-19T19:19:59.725Z,22.98
2018-07-19T19:22:29.808Z,22.97
2018-07-19T19:25:00.023Z,22.99
2018-07-19T19:27:30.334Z,23.07
2018-07-19T19:30:00.514Z,22.91
2018-07-19T19:32:30.853Z,22.95
2018-07-19T19:35:00.884Z,22.89
2018-07-19T19:37:31.022Z,22.77
2018-07-19T19:40:01.257Z,22.86
2018-07-19T19:42:31.518Z,22.70
2018-07-19T19:45:01.638Z,22.71
2018-07-19T19:47:35.052Z,22.68
2018-07-19T19:50:05.318Z,22.66
2018-07-19T19:52:35.542Z,22.66
2018-07-19T19:55:05.786Z,22.63
2018-07-19T19:57:36.015Z,22.59
2018-07-19T20:00:06.520Z,22.58
2018-07-19T20:02:36.757Z,22.49
2018-07-19T20:05:07.029Z,22.55
2018-07-19T20:07:37.058Z,22.44
2018-07-19T20:10:07.539Z,22.43
2018-07-19T20:12:38.543Z,22.48
2018-07-19T20:15:08.728Z,22.47
2018-07-19T20:17:39.054Z,22.40
2018-07-19T20:20:10.710Z,22.44
2018-07-19T20:22:42.259Z,22.47
2018-07-19T20:25:13.733Z,22.42
2018-07-19T20:27:44.267Z,22.38
2018-07-19T20:30:16.251Z,22.46
2018-07-19T20:32:47.451Z,22.53
2018-07-19T20:35:19.330Z,22.54
2018-07-19T20:37:50.165Z,22.62
2018-07-19T20:40:21.316Z,22.60
2018-07-19T20:42:52.913Z,22.63
2018-07-19T20:45:24.419Z,22.64
2018-07-19T20:47:56.166Z,22.68
2018-07-19T20:50:27.070Z,22.66
2018-07-19T20:52:58.564Z,22.59
2018-07-19T20:55:29.844Z,22.59
2018-07-19T20:58:01.049Z,22.55
2018-07-19T21:00:32.235Z,22.57
2018-07-19T21:03:03.525Z,22.53
2018-07-19T21:05:35.327Z,22.53
2018-07-19T21:09:35.755Z,22.54
2018-07-19T21:12:06.992Z,22.51
2018-07-19T21:14:38.687Z,22.53
2018-07-19T21:17:10.248Z,22.54
2018-07-19T21:19:41.014Z,22.58
2018-07-19T21:22:12.415Z,22.51
2018-07-19T21:24:43.624Z,22.61
2018-07-19T21:27:14.821Z,22.60
2018-07-19T21:29:46.036Z,22.59
2018-07-19T21:32:16.992Z,22.67
2018-07-19T21:34:48.618Z,22.64
2018-07-19T21:37:19.621Z,22.65
2018-07-19T21:39:51.214Z,22.62
2018-07-19T21:42:22.131Z,22.64
2018-07-19T21:44:53.408Z,22.62
2018-07-19T21:47:25.361Z,22.62
2018-07-19T21:49:56.496Z,22.64
2018-07-19T21:52:28.257Z,22.58
2018-07-19T21:54:59.760Z,22.53
2018-07-19T21:57:31.061Z,22.51
2018-07-19T22:00:02.418Z,22.52
2018-07-19T22:02:33.851Z,22.57
2018-07-19T22:05:05.213Z,22.54
2018-07-19T22:07:36.592Z,22.48
2018-07-19T22:10:07.955Z,22.51
2018-07-19T22:12:39.415Z,22.49
2018-07-19T22:15:11.364Z,22.53
2018-07-19T22:17:43.275Z,22.49
2018-07-19T22:20:14.607Z,22.60
2018-07-19T22:22:45.988Z,22.60
2018-07-19T22:25:18.633Z,22.62
2018-07-19T22:27:49.211Z,22.67
2018-07-19T22:37:10.053Z,22.54
2018-07-19T22:39:41.041Z,22.63
2018-07-19T22:42:12.262Z,22.63
2018-07-19T22:44:43.799Z,22.73
2018-07-19T22:47:15.344Z,22.78
2018-07-19T22:49:46.839Z,22.74
2018-07-19T22:52:18.058Z,22.78
2018-07-19T22:54:49.243Z,22.85
2018-07-19T22:57:20.750Z,22.78
2018-07-19T22:59:52.553Z,22.74
2018-07-19T23:02:24.170Z,22.70
2018-07-19T23:04:55.479Z,22.74
2018-07-19T23:07:26.694Z,22.73
2018-07-19T23:09:57.537Z,22.83
2018-07-19T23:12:28.636Z,22.80
2018-07-19T23:14:59.670Z,22.83
2018-07-19T23:17:30.082Z,22.77
2018-07-19T23:20:01.400Z,22.76
2018-07-19T23:22:32.712Z,22.79
2018-07-19T23:25:03.805Z,22.76
2018-07-19T23:27:35.133Z,22.77
2018-07-19T23:30:06.539Z,22.66
2018-07-19T23:32:38.232Z,22.72
2018-07-19T23:35:09.630Z,22.65
2018-07-19T23:37:42.424Z,22.67
2018-07-19T23:40:18.147Z,22.68
2018-07-19T23:42:57.880Z,22.66
2018-07-19T23:46:34.915Z,22.67
2018-07-19T23:49:06.471Z,22.62
2018-07-19T23:51:38.817Z,22.65
2018-07-19T23:54:09.783Z,22.79
2018-07-19T23:56:40.950Z,22.68
2018-07-19T23:59:12.623Z,22.68
